Latest Weather Observations for Griffith

IDN60801

Issued at 2:52 pm EST Wednesday 8 April 2020 (issued every 10 minutes, with the page automatically refreshed every 10 minutes)

About weather observations | Map of weather stations | Latest weather observations for NSW | Other Formats
Station Details ID: 075041 Name: GRIFFITH AIRPORT AWS Lat: -34.25 Lon: 146.07 Height: 134.0 m
Data from the previous 72 hours. | See also: Recent months at Griffith
Date/Time
EST
Temp
°C
App
Temp
°C
Dew
Point
°C
Rel
Hum
%
Delta-T
°C
Wind Press
QNH
hPa
Press
MSL
hPa
Rain since
9am
mm
Dir  Spd
km/h
Gust
km/h
Spd
kts
Gust
kts
08/02:30pm 20.6 19.1 10.7 53 5.4 SSE 9 19 5 10 1019.3 1019.1 0.0
08/02:00pm 19.8 18.6 9.7 52 5.4 S 6 11 3 6 1019.6 1019.4 0.0
08/01:30pm 20.6 19.3 10.1 51 5.7 SE 7 13 4 7 1019.9 1019.7 0.0
08/01:00pm 19.9 18.5 9.5 51 5.5 WNW 7 13 4 7 1020.2 1020.0 0.0
08/12:30pm 19.2 18.3 10.5 57 4.7 S 6 13 3 7 1020.4 1020.2 0.0
08/12:00pm 18.4 17.5 10.5 60 4.3 SW 6 11 3 6 1021.1 1020.9 0.0
08/11:30am 17.6 16.4 10.2 62 4.0 W 7 9 4 5 1021.4 1021.2 0.0
08/11:00am 16.8 16.3 9.5 62 3.8 WNW 2 7 1 4 1021.4 1021.2 0.0
08/10:30am 16.1 16.0 9.5 65 3.4 CALM 0 0 0 0 1021.6 1021.4 0.0
08/10:00am 15.9 14.7 9.6 66 3.3 WSW 6 11 3 6 1021.4 1021.2 0.0
08/09:30am 15.6 15.4 10.4 71 2.8 N 2 6 1 3 1021.4 1021.2 0.0
08/09:00am 13.5 13.0 10.7 83 1.5 NW 4 7 2 4 1021.4 1021.2 0.0
08/08:30am 11.5 12.0 11.5 100 0.0 CALM 0 0 0 0 1021.2 1021.0 0.0
08/08:00am 9.6 9.5 9.6 100 0.0 CALM 0 0 0 0 1020.9 1020.7 0.0
08/07:30am 8.5 6.8 8.5 100 0.0 SW 7 13 4 7 1020.5 1020.3 0.0
08/07:00am 6.8 6.0 6.7 99 0.0 CALM 0 0 0 0 1020.1 1019.9 0.0
08/06:30am 6.7 5.9 6.6 99 0.0 CALM 0 0 0 0 1019.9 1019.7 0.0
08/06:24am 6.8 6.0 6.7 99 0.0 CALM 0 0 0 0 1019.8 1019.6 0.0
08/06:02am 6.7 5.9 6.6 99 0.0 CALM 0 0 0 0 1019.8 1019.6 0.0
08/06:00am 6.9 6.2 6.8 99 0.0 CALM 0 0 0 0 1019.8 1019.6 0.0
08/05:30am 7.0 6.3 6.9 99 0.0 CALM 0 0 0 0 1019.8 1019.6 0.0
08/05:00am 7.0 6.2 6.7 98 0.1 CALM 0 7 0 4 1019.6 1019.4 0.0
08/04:30am 7.0 6.2 6.7 98 0.1 CALM 0 0 0 0 1019.4 1019.2 0.0
08/04:00am 7.6 7.0 7.3 98 0.1 CALM 0 0 0 0 1019.4 1019.2 0.0
08/03:30am 7.7 7.1 7.3 97 0.2 CALM 0 0 0 0 1019.1 1018.9 0.0
08/03:00am 8.0 7.4 7.6 97 0.2 CALM 0 0 0 0 1019.4 1019.2 0.0
08/02:30am 8.3 7.7 7.5 95 0.4 CALM 0 0 0 0 1019.6 1019.4 0.0
08/02:00am 9.4 9.1 8.6 95 0.4 CALM 0 0 0 0 1019.8 1019.6 0.0
08/01:30am 10.3 10.2 9.4 94 0.5 CALM 0 2 0 1 1020.0 1019.8 0.0
08/01:00am 10.8 10.9 10.0 95 0.4 CALM 0 0 0 0 1020.0 1019.8 0.0
08/12:30am 10.9 11.0 10.0 94 0.5 CALM 0 0 0 0 1020.0 1019.8 0.0
08/12:00am 11.1 11.2 10.2 94 0.5 CALM 0 4 0 2 1020.2 1020.0 0.0
 
Date/Time
EST
Temp
°C
App
Temp
°C
Dew
Point
°C
Rel
Hum
%
Delta-T
°C
Wind Press
QNH
hPa
Press
MSL
hPa
Rain since
9am
mm
Dir  Spd
km/h
Gust
km/h
Spd
kts
Gust
kts
07/11:30pm 11.2 10.6 10.3 94 0.5 N 4 7 2 4 1020.3 1020.1 0.0
07/11:00pm 11.4 11.6 10.5 94 0.5 CALM 0 0 0 0 1020.3 1020.1 0.0
07/10:30pm 11.0 11.1 10.2 95 0.4 CALM 0 0 0 0 1020.8 1020.6 0.0
07/10:00pm 10.5 9.6 9.3 92 0.6 NW 4 7 2 4 1020.8 1020.6 0.0
07/09:30pm 10.5 10.2 8.8 89 0.8 CALM 0 0 0 0 1020.5 1020.3 0.0
07/09:00pm 10.8 10.3 8.0 83 1.4 CALM 0 0 0 0 1020.6 1020.4 0.0
07/08:30pm 11.4 10.9 7.7 78 1.8 CALM 0 6 0 3 1020.4 1020.2 0.0
07/08:00pm 12.8 11.1 8.3 74 2.2 SW 7 11 4 6 1020.4 1020.2 0.0
07/07:30pm 13.1 11.7 9.5 79 1.8 WSW 7 9 4 5 1020.4 1020.2 0.0
07/07:00pm 13.3 11.5 9.4 77 2.0 WSW 9 13 5 7 1020.2 1020.0 0.0
07/06:30pm 13.8 12.3 8.6 71 2.6 SW 6 7 3 4 1019.7 1019.5 0.0
07/06:00pm 14.9 13.2 8.4 65 3.3 WSW 7 11 4 6 1019.8 1019.6 0.0
07/05:30pm 15.4 12.8 7.9 61 3.8 W 11 15 6 8 1020.1 1019.9 0.0
07/05:00pm 16.9 13.5 7.8 55 4.6 W 15 19 8 10 1019.9 1019.7 0.0
07/04:30pm 17.0 14.3 7.4 53 4.8 W 11 15 6 8 1019.9 1019.7 0.0
07/04:00pm 17.1 13.6 7.2 52 5.0 W 15 19 8 10 1020.0 1019.8 0.0
07/03:30pm 17.4 14.3 7.2 51 5.1 WSW 13 19 7 10 1020.0 1019.8 0.0
07/03:00pm 18.2 16.2 7.0 48 5.6 WSW 7 11 4 6 1020.2 1020.0 0.0
07/02:30pm 17.5 14.7 7.0 50 5.3 SW 11 19 6 10 1020.4 1020.2 0.0
07/02:00pm 17.4 15.2 6.0 47 5.6 SW 7 17 4 9 1020.6 1020.4 0.0
07/01:30pm 18.2 15.2 7.9 51 5.3 SW 13 22 7 12 1020.8 1020.6 0.0
07/01:00pm 17.7 15.1 7.7 52 5.1 WSW 11 19 6 10 1021.2 1021.0 0.0
07/12:30pm 17.9 16.1 7.9 52 5.1 NW 7 15 4 8 1021.7 1021.5 0.0
07/12:00pm 17.4 15.5 7.7 53 4.9 SSW 7 13 4 7 1022.1 1021.9 0.0
07/11:30am 16.9 14.8 8.1 56 4.5 SW 9 20 5 11 1022.3 1022.1 0.0
07/11:00am 15.7 14.5 8.2 61 3.8 W 4 9 2 5 1022.4 1022.2 0.0
07/10:30am 15.0 13.4 8.9 67 3.1 SW 7 11 4 6 1022.8 1022.6 0.0
07/10:00am 14.6 13.0 8.8 68 2.9 SW 7 9 4 5 1022.9 1022.7 0.0
07/09:30am 13.8 12.8 8.8 72 2.5 ESE 4 7 2 4 1022.8 1022.6 0.0
07/09:00am 12.2 10.2 8.7 79 1.7 ESE 9 13 5 7 1022.3 1022.1 0.0
07/08:30am 11.6 8.4 8.6 82 1.5 ESE 15 17 8 9 1022.0 1021.8 0.0
07/08:00am 9.8 9.2 9.0 95 0.4 ENE 2 7 1 4 1022.0 1021.8 0.0
07/07:30am 8.4 7.9 8.0 97 0.2 CALM 0 9 0 5 1021.9 1021.7 0.0
07/07:00am 7.4 6.7 7.0 97 0.2 CALM 0 0 0 0 1021.8 1021.6 0.0
07/06:30am 6.8 5.9 5.9 94 0.4 CALM 0 0 0 0 1021.8 1021.6 0.0
07/06:00am 7.3 6.4 5.9 91 0.6 CALM 0 0 0 0 1021.7 1021.5 0.0
07/05:30am 8.2 7.5 6.8 91 0.7 CALM 0 0 0 0 1021.5 1021.3 0.0
07/05:00am 7.9 7.0 5.9 87 0.9 CALM 0 0 0 0 1021.4 1021.2 0.0
07/04:30am 9.3 6.0 6.4 82 1.4 SE 13 17 7 9 1021.2 1021.0 0.0
07/04:00am 10.0 6.3 6.5 79 1.6 SE 15 19 8 10 1021.1 1020.9 0.0
07/03:30am 10.0 6.4 6.7 80 1.6 SE 15 19 8 10 1021.0 1020.8 0.0
07/03:00am 10.2 6.6 6.9 80 1.6 SE 15 20 8 11 1021.0 1020.8 0.0
07/02:30am 10.3 6.7 6.8 79 1.7 SE 15 19 8 10 1021.4 1021.2 0.0
07/02:00am 10.6 7.4 6.7 77 1.8 SSE 13 19 7 10 1021.8 1021.6 0.0
07/01:30am 10.8 7.2 6.9 77 1.9 SSE 15 19 8 10 1021.7 1021.5 0.0
07/01:00am 11.1 7.5 6.8 75 2.0 SSE 15 20 8 11 1021.8 1021.6 0.0
07/12:30am 11.7 8.5 6.8 72 2.3 SSE 13 19 7 10 1021.9 1021.7 0.0
07/12:00am 11.8 8.7 7.3 74 2.2 S 13 17 7 9 1021.9 1021.7 0.0
 
Date/Time
EST
Temp
°C
App
Temp
°C
Dew
Point
°C
Rel
Hum
%
Delta-T
°C
Wind Press
QNH
hPa
Press
MSL
hPa
Rain since
9am
mm
Dir  Spd
km/h
Gust
km/h
Spd
kts
Gust
kts
06/11:30pm 11.1 8.5 7.8 80 1.6 S 11 15 6 8 1022.1 1021.9 0.0
06/11:00pm 11.4 9.1 7.5 77 1.9 S 9 9 5 5 1022.3 1022.1 0.0
06/10:30pm 12.0 9.7 7.5 74 2.2 S 9 13 5 7 1022.3 1022.1 0.0
06/10:00pm 12.3 9.8 8.0 75 2.1 SSE 11 13 6 7 1022.1 1021.9 0.0
06/09:30pm 11.2 9.0 7.7 79 1.7 S 9 11 5 6 1022.1 1021.9 0.0
06/09:00pm 12.1 9.5 7.8 75 2.1 S 11 11 6 6 1022.2 1022.0 0.0
06/08:30pm 12.7 10.2 8.0 73 2.3 S 11 13 6 7 1021.9 1021.7 0.0
06/08:00pm 12.3 10.1 8.0 75 2.1 SSW 9 11 5 6 1021.5 1021.3 0.0
06/07:30pm 13.0 10.5 8.1 72 2.4 SSW 11 11 6 6 1021.3 1021.1 0.0
06/07:00pm 13.3 10.8 8.2 71 2.5 SSW 11 13 6 7 1020.9 1020.7 0.0
06/06:30pm 14.4 12.3 8.1 66 3.2 SSW 9 11 5 6 1020.6 1020.4 0.0
06/06:00pm 15.6 13.5 8.1 61 3.8 SSW 9 13 5 7 1020.3 1020.1 0.0
06/05:30pm 16.9 13.9 7.5 54 4.7 SSW 13 17 7 9 1020.3 1020.1 0.0
06/05:00pm 17.5 13.6 7.0 50 5.3 SSW 17 24 9 13 1020.1 1019.9 0.0
06/04:30pm 18.4 15.0 7.5 49 5.6 SSW 15 24 8 13 1020.0 1019.8 0.0
06/04:00pm 18.1 14.4 8.1 52 5.1 SW 17 24 9 13 1020.0 1019.8 0.0
06/03:30pm 18.2 15.0 8.5 53 5.0 SSW 15 24 8 13 1019.8 1019.6 0.0
06/03:00pm 18.2 14.6 8.2 52 5.1 SW 17 26 9 14 1019.7 1019.5 0.0
06/02:30pm 18.1 13.9 8.4 53 5.0 SSW 20 28 11 15 1019.6 1019.4 0.0
06/02:00pm 19.9 17.1 10.0 53 5.3 SW 15 24 8 13 1019.6 1019.4 0.0
06/01:30pm 19.3 16.1 10.0 55 5.0 SW 17 26 9 14 1020.0 1019.8 0.0
06/01:00pm 19.2 17.0 10.7 58 4.6 WSW 13 22 7 12 1020.2 1020.0 0.0
06/12:30pm 18.7 16.3 10.0 57 4.7 SW 13 22 7 12 1020.6 1020.4 0.0
06/12:00pm 17.6 15.2 10.2 62 3.9 WSW 13 20 7 11 1020.8 1020.6 0.0
06/11:30am 16.8 13.7 10.2 65 3.5 SW 17 24 9 13 1021.1 1020.9 0.0
06/11:00am 16.6 14.2 11.3 71 2.9 SW 15 22 8 12 1021.2 1021.0 0.0
06/10:30am 17.0 15.1 11.9 72 2.8 SW 13 20 7 11 1021.3 1021.1 0.0
06/10:00am 16.1 13.6 11.1 72 2.7 SW 15 20 8 11 1021.3 1021.1 0.0
06/09:30am 15.9 13.6 11.7 76 2.3 SW 15 20 8 11 1021.4 1021.2 0.0
06/09:00am 14.8 12.9 11.9 83 1.6 SW 13 17 7 9 1021.3 1021.1 0.0
06/08:30am 14.4 12.3 12.4 88 1.1 SW 15 22 8 12 1021.2 1021.0 0.0
06/08:00am 13.6 11.1 12.3 92 0.7 SW 17 20 9 11 1020.7 1020.5 0.0
06/07:30am 12.8 10.6 12.2 96 0.3 SW 15 20 8 11 1020.4 1020.2 0.0
06/07:00am 12.1 10.6 11.8 98 0.2 SW 11 15 6 8 1020.0 1019.8 0.0
06/06:30am 11.6 10.7 11.3 98 0.2 W 7 11 4 6 1019.7 1019.5 0.0
06/06:00am 11.6 10.8 11.0 96 0.3 W 6 9 3 5 1019.2 1019.0 0.0
06/05:30am 12.1 10.8 11.3 95 0.4 WSW 9 11 5 6 1018.7 1018.4 0.0
06/05:00am 12.6 11.8 11.7 94 0.5 W 7 9 4 5 1018.5 1018.2 0.0
06/04:30am 13.3 12.7 12.2 93 0.6 NW 7 7 4 4 1018.1 1017.8 0.0
06/04:00am 13.6 12.6 12.3 92 0.7 WNW 9 9 5 5 1017.9 1017.6 0.0
06/03:30am 13.9 12.9 12.3 90 0.9 WNW 9 11 5 6 1017.9 1017.6 0.0
06/03:00am 14.0 12.5 11.9 87 1.1 WSW 11 13 6 7 1017.9 1017.6 0.0
06/02:30am 14.3 12.8 12.0 86 1.2 WSW 11 13 6 7 1017.8 1017.5 0.0
06/02:00am 14.4 13.0 12.1 86 1.3 W 11 17 6 9 1017.9 1017.6 0.0
06/01:30am 14.7 13.7 12.4 86 1.3 W 9 17 5 9 1017.9 1017.6 0.0
06/01:00am 14.2 14.7 12.9 92 0.7 NW 2 7 1 4 1017.7 1017.4 0.0
06/12:30am 13.9 13.6 12.8 93 0.6 NNW 6 7 3 4 1017.5 1017.2 0.0
06/12:00am 13.5 13.0 12.2 92 0.7 NW 6 6 3 3 1017.5 1017.2 0.0
 
Date/Time
EST
Temp
°C
App
Temp
°C
Dew
Point
°C
Rel
Hum
%
Delta-T
°C
Wind Press
QNH
hPa
Press
MSL
hPa
Rain since
9am
mm
Dir  Spd
km/h
Gust
km/h
Spd
kts
Gust
kts
05/11:30pm 13.2 12.5 12.1 93 0.6 NW 7 9 4 5 1017.7 1017.4 0.0
05/11:00pm 12.8 12.3 11.9 94 0.5 NW 6 6 3 3 1017.8 1017.5 0.0
05/10:30pm 12.6 11.7 11.2 91 0.7 NW 7 9 4 5 1017.7 1017.4 0.0
05/10:00pm 13.2 12.3 11.3 88 1.0 NW 7 7 4 4 1017.6 1017.3 0.0
05/09:30pm 13.6 12.7 11.5 87 1.1 WNW 7 9 4 5 1017.5 1017.2 0.0
05/09:00pm 13.9 12.2 11.2 84 1.4 NW 11 13 6 7 1017.3 1017.0 0.0
05/08:30pm 14.7 12.7 11.5 81 1.7 NW 13 15 7 8 1017.0 1016.7 0.0
05/08:00pm 14.5 12.9 11.7 83 1.5 NW 11 13 6 7 1017.1 1016.8 0.0
05/07:30pm 15.2 13.1 11.2 77 2.2 NW 13 17 7 9 1016.9 1016.6 0.0
05/07:00pm 15.6 14.0 11.4 76 2.3 NW 11 13 6 7 1016.7 1016.4 0.0
05/06:30pm 16.0 14.2 10.7 71 2.8 WNW 11 13 6 7 1016.3 1016.0 0.0
05/06:00pm 16.1 13.7 10.2 68 3.1 WNW 13 17 7 9 1016.0 1015.7 0.0
05/05:30pm 17.3 13.7 10.0 62 3.9 WNW 19 28 10 15 1015.6 1015.4 0.0
05/05:00pm 17.4 13.6 9.8 61 4.0 WNW 20 26 11 14 1015.5 1015.3 0.0
05/04:30pm 17.7 14.2 10.1 61 4.1 W 19 26 10 14 1015.3 1015.1 0.0
05/04:00pm 17.9 13.4 10.0 60 4.2 W 24 30 13 16 1015.1 1014.9 0.0
05/03:30pm 18.3 12.8 9.1 55 4.8 WNW 28 39 15 21 1015.0 1014.8 0.0
05/03:00pm 18.0 13.8 9.6 58 4.4 WNW 22 32 12 17 1015.1 1014.9 0.0

Other formats

Comma delimited format used in spreadsheet applications
http://www.bom.gov.au/fwo/IDN60801/IDN60801.95704.axf

JavaScript Object Notation format (JSON) in row-major order
http://www.bom.gov.au/fwo/IDN60801/IDN60801.95704.json

Data quality

Most of these data are generated automatically and are frequently updated. Quality checks on data are not normally performed. It is possible for incorrect values to appear. Refer to information at About Latest Weather Observations and please check the disclaimer before using these data.